createdAt,value
2018-09-26T00:02:13.166Z,91.37
2018-09-26T00:04:46.695Z,90.91
2018-09-26T00:07:18.160Z,91.19
2018-09-26T00:09:47.571Z,91.36
2018-09-26T00:12:16.981Z,92.28
2018-09-26T00:14:46.364Z,91.55
2018-09-26T00:17:17.141Z,91.61
2018-09-26T00:19:46.560Z,91.70
2018-09-26T00:22:15.993Z,91.39
2018-09-26T00:24:45.394Z,91.70
2018-09-26T00:27:14.859Z,91.38
2018-09-26T00:29:44.387Z,91.55
2018-09-26T00:32:14.269Z,91.94
2018-09-26T00:34:43.689Z,91.92
2018-09-26T00:37:13.116Z,91.97
2018-09-26T00:39:42.546Z,91.51
2018-09-26T00:42:11.966Z,92.04
2018-09-26T00:44:41.474Z,92.32
2018-09-26T00:47:10.791Z,92.54
2018-09-26T00:49:40.178Z,92.93
2018-09-26T00:52:09.596Z,92.69
2018-09-26T00:54:39.030Z,92.68
2018-09-26T00:57:08.554Z,91.82
2018-09-26T00:59:38.022Z,92.04
2018-09-26T01:02:07.447Z,92.38
2018-09-26T01:04:37.394Z,91.94
2018-09-26T01:07:06.948Z,92.11
2018-09-26T01:09:36.414Z,92.36
2018-09-26T01:12:05.916Z,92.75
2018-09-26T01:14:36.260Z,92.65
2018-09-26T01:17:05.769Z,92.45
2018-09-26T01:19:35.254Z,92.47
2018-09-26T01:22:05.226Z,92.02
2018-09-26T01:24:34.652Z,92.44
2018-09-26T01:27:04.093Z,92.45
2018-09-26T01:29:33.614Z,92.67
2018-09-26T01:32:03.011Z,92.19
2018-09-26T01:34:32.450Z,92.67
2018-09-26T01:37:01.845Z,93.04
2018-09-26T01:39:31.288Z,92.63
2018-09-26T01:42:01.217Z,93.25
2018-09-26T01:44:30.787Z,92.79
2018-09-26T01:47:01.512Z,92.73
2018-09-26T01:49:30.931Z,91.86
2018-09-26T01:52:00.322Z,92.11
2018-09-26T01:54:29.861Z,92.05
2018-09-26T01:56:59.831Z,92.57
2018-09-26T01:59:29.749Z,92.50
2018-09-26T02:01:59.180Z,93.03
2018-09-26T02:04:29.591Z,93.03
2018-09-26T02:06:59.937Z,93.03
2018-09-26T02:09:30.003Z,93.60
2018-09-26T02:11:59.451Z,93.59
2018-09-26T02:14:28.866Z,93.01
2018-09-26T02:16:58.941Z,92.87
2018-09-26T02:19:28.343Z,92.31
2018-09-26T02:21:57.741Z,92.74
2018-09-26T02:24:27.270Z,92.93
2018-09-26T02:26:56.670Z,92.89
2018-09-26T02:29:26.104Z,92.98
2018-09-26T02:31:55.533Z,93.04
2018-09-26T02:34:24.969Z,93.34
2018-09-26T02:36:54.368Z,93.91
2018-09-26T02:39:23.809Z,93.68
2018-09-26T02:41:53.333Z,92.90
2018-09-26T02:44:22.768Z,93.84
2018-09-26T02:46:52.173Z,93.56
2018-09-26T02:49:22.176Z,93.49
2018-09-26T02:51:51.599Z,93.51
2018-09-26T02:54:20.994Z,93.34
2018-09-26T02:56:50.975Z,93.07
2018-09-26T02:59:20.362Z,92.46
2018-09-26T03:01:49.830Z,93.07
2018-09-26T03:04:19.228Z,93.26
2018-09-26T03:06:48.626Z,93.57
2018-09-26T03:09:18.057Z,93.94
2018-09-26T03:11:47.460Z,93.60
2018-09-26T03:14:16.873Z,93.54
2018-09-26T03:16:46.272Z,93.13
2018-09-26T03:19:15.704Z,92.57
2018-09-26T03:21:45.249Z,92.53
2018-09-26T03:24:15.270Z,92.77
2018-09-26T03:26:44.630Z,93.11
2018-09-26T03:29:14.056Z,92.70
2018-09-26T03:31:43.440Z,93.07
2018-09-26T03:34:12.854Z,93.03
2018-09-26T03:36:42.282Z,93.09
2018-09-26T03:39:11.672Z,93.10
2018-09-26T03:41:41.222Z,93.01
2018-09-26T03:44:10.663Z,93.22
2018-09-26T03:46:40.072Z,93.15
2018-09-26T03:49:12.859Z,93.50
2018-09-26T03:51:42.445Z,93.42
2018-09-26T03:54:11.850Z,93.10
2018-09-26T03:56:41.312Z,93.21
2018-09-26T03:59:11.162Z,93.03
2018-09-26T04:01:40.571Z,92.66
2018-09-26T04:04:09.981Z,92.60
2018-09-26T04:06:39.379Z,92.36
2018-09-26T04:09:09.812Z,91.82
2018-09-26T04:11:39.842Z,91.17
2018-09-26T04:14:09.312Z,91.51
2018-09-26T04:16:38.740Z,91.31
2018-09-26T04:19:08.194Z,91.53
2018-09-26T04:21:37.615Z,91.57
2018-09-26T04:24:07.280Z,91.92
2018-09-26T04:26:36.764Z,92.02
2018-09-26T04:29:06.095Z,91.92
2018-09-26T04:31:35.587Z,92.00
2018-09-26T04:34:05.045Z,91.95
2018-09-26T04:36:34.479Z,92.39
2018-09-26T04:39:04.307Z,92.21
2018-09-26T04:41:33.785Z,91.74
2018-09-26T04:44:03.141Z,92.01
2018-09-26T04:46:32.543Z,92.02
2018-09-26T04:49:01.932Z,91.86
2018-09-26T04:51:31.529Z,92.05
2018-09-26T04:54:00.968Z,91.65
2018-09-26T04:56:30.418Z,92.36
2018-09-26T04:58:59.862Z,92.32
2018-09-26T05:01:29.320Z,92.22
2018-09-26T05:03:59.187Z,91.97
2018-09-26T05:06:28.617Z,92.23
2018-09-26T05:08:58.067Z,92.09
2018-09-26T05:11:27.742Z,91.95
2018-09-26T05:13:57.304Z,91.75
2018-09-26T05:16:27.932Z,91.55
2018-09-26T05:18:59.603Z,91.92
2018-09-26T05:21:29.191Z,91.65
2018-09-26T05:24:02.860Z,91.36
2018-09-26T05:26:32.467Z,91.59
2018-09-26T05:29:02.039Z,91.82
2018-09-26T05:31:31.622Z,92.38
2018-09-26T05:34:01.230Z,92.42
2018-09-26T05:36:30.826Z,91.91
2018-09-26T05:39:03.610Z,92.14
2018-09-26T05:41:33.129Z,92.46
2018-09-26T05:44:03.580Z,92.10
2018-09-26T05:46:33.272Z,92.35
2018-09-26T05:49:02.922Z,92.92
2018-09-26T05:51:32.542Z,92.66
2018-09-26T05:54:02.204Z,92.95
2018-09-26T05:56:32.332Z,93.11
2018-09-26T05:59:02.026Z,93.28
2018-09-26T06:01:31.621Z,93.37
2018-09-26T06:04:01.202Z,93.10
2018-09-26T06:06:30.899Z,93.55
2018-09-26T06:09:01.551Z,93.37
2018-09-26T06:11:31.203Z,93.02
2018-09-26T06:14:00.829Z,93.04
2018-09-26T06:16:30.442Z,93.70
2018-09-26T06:19:00.123Z,93.79
2018-09-26T06:21:29.710Z,93.42
2018-09-26T06:24:02.675Z,93.88
2018-09-26T06:26:34.422Z,93.19
2018-09-26T06:29:04.085Z,93.03
2018-09-26T06:31:37.733Z,93.97
2018-09-26T06:34:09.262Z,94.07
2018-09-26T06:36:42.649Z,93.64
2018-09-26T06:39:19.724Z,93.62
2018-09-26T06:41:54.724Z,94.28
2018-09-26T06:44:27.978Z,94.33
2018-09-26T06:46:57.544Z,94.44
2018-09-26T06:49:26.986Z,94.32
2018-09-26T06:51:56.611Z,94.17
2018-09-26T06:54:26.394Z,93.94
2018-09-26T06:56:57.040Z,94.04
2018-09-26T06:59:26.690Z,94.68
2018-09-26T07:01:59.627Z,95.14
2018-09-26T07:04:29.232Z,95.17
2018-09-26T07:07:02.379Z,95.06
2018-09-26T07:09:31.861Z,94.96
2018-09-26T07:12:01.453Z,95.32
2018-09-26T07:14:31.767Z,95.58
2018-09-26T07:17:05.431Z,95.07
2018-09-26T07:19:34.860Z,94.88
2018-09-26T07:22:04.246Z,94.51
2018-09-26T07:24:36.265Z,94.32
2018-09-26T07:27:10.364Z,94.48
2018-09-26T07:29:41.019Z,94.72
2018-09-26T07:32:10.645Z,94.25
2018-09-26T07:34:40.565Z,94.76
2018-09-26T07:37:10.136Z,94.85
2018-09-26T07:39:39.764Z,94.73
2018-09-26T07:42:09.356Z,94.84
2018-09-26T07:44:39.889Z,94.81
2018-09-26T07:47:10.307Z,94.46
2018-09-26T07:49:41.003Z,94.25
2018-09-26T07:52:10.554Z,93.55
2018-09-26T07:54:39.966Z,93.12
2018-09-26T07:57:09.482Z,92.50
2018-09-26T07:59:39.150Z,92.45
2018-09-26T08:02:08.781Z,91.82
2018-09-26T08:04:41.165Z,92.26
2018-09-26T08:07:10.691Z,92.08
2018-09-26T08:09:40.303Z,92.19
2018-09-26T08:12:14.334Z,92.97
2018-09-26T08:14:43.781Z,92.15
2018-09-26T08:17:13.398Z,91.41
2018-09-26T08:19:43.873Z,91.61
2018-09-26T08:22:13.492Z,91.85
2018-09-26T08:24:42.943Z,91.65
2018-09-26T08:27:12.401Z,91.09
2018-09-26T08:29:42.295Z,90.67
2018-09-26T08:32:13.573Z,90.73
2018-09-26T08:34:42.985Z,90.85
2018-09-26T08:37:12.381Z,90.25
2018-09-26T08:39:41.760Z,90.47
2018-09-26T08:42:11.206Z,91.15
2018-09-26T08:44:40.601Z,91.51
2018-09-26T08:47:10.021Z,92.09
2018-09-26T08:49:39.423Z,92.21
2018-09-26T08:52:08.836Z,92.75
2018-09-26T08:54:38.343Z,92.19
2018-09-26T08:57:07.960Z,92.19
2018-09-26T08:59:37.425Z,91.64
2018-09-26T09:02:07.766Z,90.96
2018-09-26T09:04:37.218Z,89.06
2018-09-26T09:07:06.689Z,88.28
2018-09-26T09:09:36.083Z,88.47
2018-09-26T09:12:05.493Z,87.75
2018-09-26T09:14:35.005Z,87.94
2018-09-26T09:17:04.370Z,88.56
2018-09-26T09:19:33.800Z,88.83
2018-09-26T09:22:03.222Z,88.88
2018-09-26T09:24:32.704Z,89.20
2018-09-26T09:27:02.144Z,89.31
2018-09-26T09:29:31.626Z,89.15
2018-09-26T09:32:01.071Z,88.73
2018-09-26T09:34:30.637Z,88.46
2018-09-26T09:37:00.655Z,88.84
2018-09-26T09:39:30.210Z,88.77
2018-09-26T09:41:59.602Z,88.49
2018-09-26T09:44:31.074Z,88.41
2018-09-26T09:47:00.431Z,87.33
2018-09-26T09:49:29.809Z,86.97
2018-09-26T09:51:59.318Z,85.92
2018-09-26T09:54:28.718Z,86.02
2018-09-26T09:56:58.109Z,85.32
2018-09-26T09:59:27.532Z,83.76
2018-09-26T10:01:56.965Z,82.96
2018-09-26T10:04:26.584Z,82.99
2018-09-26T10:06:56.005Z,82.29
2018-09-26T10:09:25.535Z,82.01
2018-09-26T10:11:56.362Z,81.40
2018-09-26T10:14:26.326Z,79.08
2018-09-26T10:16:55.733Z,76.83
2018-09-26T10:19:25.175Z,76.70
2018-09-26T10:21:55.080Z,77.78
2018-09-26T10:24:24.463Z,76.01
2018-09-26T10:26:53.877Z,76.29
2018-09-26T10:29:23.272Z,76.58
2018-09-26T10:31:52.909Z,74.84
2018-09-26T10:34:22.340Z,74.46
2018-09-26T10:36:51.784Z,74.48
2018-09-26T10:39:21.840Z,73.33
2018-09-26T10:41:51.394Z,73.35
2018-09-26T10:44:21.067Z,73.72
2018-09-26T10:46:50.442Z,74.69
2018-09-26T10:49:19.819Z,74.29
2018-09-26T10:51:49.797Z,73.92
2018-09-26T10:54:19.185Z,72.98
2018-09-26T10:56:48.797Z,72.61
2018-09-26T10:59:18.581Z,70.65
2018-09-26T11:01:48.067Z,70.19
2018-09-26T11:04:17.478Z,69.30
2018-09-26T11:06:46.837Z,67.86
2018-09-26T11:09:16.267Z,69.02
2018-09-26T11:11:45.701Z,69.88
2018-09-26T11:14:15.656Z,69.54
2018-09-26T11:16:45.049Z,69.58
2018-09-26T11:19:14.412Z,69.33
2018-09-26T11:21:43.897Z,67.72
2018-09-26T11:24:13.324Z,68.01
2018-09-26T11:26:42.907Z,68.11
2018-09-26T11:29:12.280Z,68.15
2018-09-26T11:31:41.702Z,68.37
2018-09-26T11:34:11.560Z,68.36
2018-09-26T11:36:41.711Z,69.11
2018-09-26T11:39:11.840Z,68.42
2018-09-26T11:41:41.339Z,67.08
2018-09-26T11:44:12.548Z,64.10
2018-09-26T11:46:41.981Z,63.68
2018-09-26T11:49:11.376Z,63.43
2018-09-26T11:51:40.781Z,63.41
2018-09-26T11:54:10.147Z,63.70
2018-09-26T11:56:41.189Z,64.07
2018-09-26T11:59:11.127Z,62.74
2018-09-26T12:01:40.524Z,61.03
2018-09-26T12:04:09.918Z,60.60
2018-09-26T12:06:39.337Z,62.41
2018-09-26T12:09:09.520Z,61.65
2018-09-26T12:11:39.542Z,59.15
2018-09-26T12:14:09.160Z,59.61
2018-09-26T12:16:38.661Z,55.96
2018-09-26T12:19:08.698Z,53.56
2018-09-26T12:21:38.154Z,54.31
2018-09-26T12:24:08.204Z,53.04
2018-09-26T12:26:37.940Z,52.71
2018-09-26T12:29:07.327Z,54.17
2018-09-26T12:31:37.016Z,55.16
2018-09-26T12:34:07.219Z,54.68
2018-09-26T12:36:39.178Z,55.56
2018-09-26T12:39:10.067Z,56.37
2018-09-26T12:41:40.142Z,55.84
2018-09-26T12:44:09.564Z,55.46
2018-09-26T12:46:39.460Z,53.68
2018-09-26T12:49:08.916Z,53.65
2018-09-26T12:51:38.357Z,53.03
2018-09-26T12:54:08.011Z,53.74
2018-09-26T12:56:37.306Z,53.77
2018-09-26T12:59:06.819Z,53.08
2018-09-26T13:01:36.255Z,51.98
2018-09-26T13:04:05.689Z,52.11
2018-09-26T13:06:35.187Z,50.88
2018-09-26T13:09:05.502Z,50.19
2018-09-26T13:11:35.012Z,50.17
2018-09-26T13:14:04.605Z,51.61
2018-09-26T13:16:34.165Z,51.94
2018-09-26T13:19:03.653Z,51.56
2018-09-26T13:21:33.052Z,52.09
2018-09-26T13:24:02.450Z,49.11
2018-09-26T13:26:31.934Z,51.25
2018-09-26T13:29:01.362Z,51.06
2018-09-26T13:31:30.861Z,49.41
2018-09-26T13:34:00.300Z,50.09
2018-09-26T13:36:29.760Z,51.08
2018-09-26T13:38:59.223Z,52.02
2018-09-26T13:41:28.664Z,52.22
2018-09-26T13:43:58.079Z,51.39
2018-09-26T13:46:27.580Z,51.97
2018-09-26T13:48:56.923Z,51.63
2018-09-26T13:51:26.845Z,50.50
2018-09-26T13:53:56.340Z,50.93
2018-09-26T13:56:25.887Z,48.93
2018-09-26T13:58:55.252Z,47.38
2018-09-26T14:01:24.675Z,46.78
2018-09-26T14:03:54.034Z,46.67
2018-09-26T14:06:23.517Z,47.58
2018-09-26T14:08:52.983Z,46.85
2018-09-26T14:11:22.430Z,47.15
2018-09-26T14:13:51.841Z,45.82
2018-09-26T14:16:21.445Z,46.55
2018-09-26T14:18:50.898Z,46.11
2018-09-26T14:21:20.350Z,46.10
2018-09-26T14:23:50.684Z,45.04
2018-09-26T14:26:20.253Z,46.21
2018-09-26T14:28:49.641Z,47.17
2018-09-26T14:31:19.074Z,48.92
2018-09-26T14:33:48.542Z,48.92
2018-09-26T14:36:19.026Z,48.32
2018-09-26T14:38:49.534Z,48.79
2018-09-26T14:41:19.099Z,48.29
2018-09-26T14:43:49.604Z,49.19
2018-09-26T14:46:19.251Z,48.02
2018-09-26T14:48:54.587Z,47.45
2018-09-26T14:51:24.296Z,47.25
2018-09-26T14:53:55.993Z,47.97
2018-09-26T14:56:25.658Z,48.01
2018-09-26T14:58:55.210Z,49.42
2018-09-26T15:01:24.830Z,52.19
2018-09-26T15:04:03.022Z,53.71
2018-09-26T15:06:32.672Z,53.63
2018-09-26T15:09:02.224Z,54.87
2018-09-26T15:11:33.450Z,55.31
2018-09-26T15:14:02.979Z,55.36
2018-09-26T15:16:32.679Z,55.99
2018-09-26T15:19:02.242Z,56.29
2018-09-26T15:21:31.745Z,56.67
2018-09-26T15:24:01.423Z,57.27
2018-09-26T15:26:31.123Z,57.48
2018-09-26T15:29:00.626Z,57.36
2018-09-26T15:31:30.258Z,57.51
2018-09-26T15:34:00.819Z,57.16
2018-09-26T15:36:34.100Z,57.68
2018-09-26T15:39:04.981Z,58.17
2018-09-26T15:41:34.669Z,57.53
2018-09-26T15:44:04.235Z,58.06
2018-09-26T15:46:33.855Z,57.64
2018-09-26T15:49:04.837Z,57.04
2018-09-26T15:51:34.515Z,58.07
2018-09-26T15:54:04.177Z,58.87
2018-09-26T15:56:33.714Z,58.38
2018-09-26T15:59:05.199Z,57.97
2018-09-26T16:01:34.792Z,59.65
2018-09-26T16:04:09.380Z,59.39
2018-09-26T16:06:41.107Z,59.06
2018-09-26T16:09:13.140Z,59.60
2018-09-26T16:11:45.993Z,59.16
2018-09-26T16:14:17.455Z,60.12
2018-09-26T16:16:48.128Z,61.58
2018-09-26T16:19:17.818Z,62.15
2018-09-26T16:21:50.641Z,63.43
2018-09-26T16:24:20.415Z,64.23
2018-09-26T16:26:52.051Z,66.27
2018-09-26T16:29:21.453Z,65.72
2018-09-26T16:31:51.136Z,66.35
2018-09-26T16:34:20.610Z,66.21
2018-09-26T16:36:49.962Z,67.59
2018-09-26T16:39:19.486Z,67.86
2018-09-26T16:41:49.181Z,67.96
2018-09-26T16:44:19.036Z,69.78
2018-09-26T16:46:48.745Z,69.94
2018-09-26T16:49:18.308Z,69.04
2018-09-26T16:51:47.835Z,69.22
2018-09-26T16:54:17.361Z,69.64
2018-09-26T16:56:47.803Z,70.28
2018-09-26T16:59:17.298Z,70.98
2018-09-26T17:01:46.710Z,70.37
2018-09-26T17:04:16.315Z,71.04
2018-09-26T17:06:45.858Z,71.87
2018-09-26T17:09:15.276Z,72.30
2018-09-26T17:11:44.717Z,71.66
2018-09-26T17:14:14.377Z,73.17
2018-09-26T17:16:43.851Z,73.42
2018-09-26T17:19:13.335Z,73.25
2018-09-26T17:21:42.775Z,74.14
2018-09-26T17:24:12.247Z,73.87
2018-09-26T17:26:41.752Z,73.39
2018-09-26T17:29:11.177Z,75.05
2018-09-26T17:31:41.515Z,75.13
2018-09-26T17:34:11.014Z,75.86
2018-09-26T17:36:40.608Z,75.94
2018-09-26T17:39:10.533Z,76.51
2018-09-26T17:41:40.017Z,76.68
2018-09-26T17:44:10.218Z,77.03
2018-09-26T17:46:39.663Z,76.88
2018-09-26T17:49:09.270Z,76.80
2018-09-26T17:51:38.715Z,77.01
2018-09-26T17:54:08.237Z,77.72
2018-09-26T17:57:39.265Z,78.17
2018-09-26T18:03:10.982Z,78.71
2018-09-26T18:05:41.201Z,78.78
2018-09-26T18:08:11.511Z,78.83
2018-09-26T18:10:43.034Z,78.73
2018-09-26T18:13:14.596Z,79.49
2018-09-26T18:15:45.199Z,79.90
2018-09-26T18:18:15.079Z,80.04
2018-09-26T18:20:45.328Z,80.61
2018-09-26T18:26:09.723Z,80.96
2018-09-26T18:28:39.590Z,81.72
2018-09-26T18:31:09.411Z,81.94
2018-09-26T18:33:44.884Z,82.13
2018-09-26T18:36:14.763Z,81.95
2018-09-26T18:38:45.363Z,81.37
2018-09-26T18:41:14.963Z,82.28
2018-09-26T18:44:00.279Z,83.20
2018-09-26T18:46:33.446Z,83.28
2018-09-26T18:49:03.156Z,83.81
2018-09-26T18:51:35.203Z,83.68
2018-09-26T18:54:05.039Z,83.14
2018-09-26T18:56:37.393Z,83.95
2018-09-26T18:59:12.451Z,83.99
2018-09-26T19:01:42.246Z,84.75
2018-09-26T19:04:44.393Z,84.83
2018-09-26T19:07:16.726Z,85.40
2018-09-26T19:09:46.696Z,85.65
2018-09-26T19:12:32.109Z,86.30
2018-09-26T19:15:20.254Z,86.56
2018-09-26T19:17:52.598Z,87.67
2018-09-26T19:20:22.958Z,86.93
2018-09-26T19:23:20.001Z,86.84
2018-09-26T19:28:53.990Z,86.66
2018-09-26T19:34:36.253Z,86.88
2018-09-26T19:37:08.343Z,87.09
2018-09-26T19:39:43.247Z,87.01
2018-09-26T19:42:14.458Z,87.77
2018-09-26T19:44:57.171Z,88.44
2018-09-26T19:47:39.628Z,89.06
2018-09-26T19:50:09.208Z,88.36
2018-09-26T19:52:38.687Z,88.51
2018-09-26T19:55:08.289Z,88.39
2018-09-26T19:57:37.700Z,88.40
2018-09-26T20:00:07.533Z,88.84
2018-09-26T20:02:37.059Z,89.51
2018-09-26T20:05:06.988Z,89.87
2018-09-26T20:07:37.314Z,89.30
2018-09-26T20:10:07.501Z,89.66
2018-09-26T20:12:37.057Z,89.55
2018-09-26T20:15:07.037Z,90.05
2018-09-26T20:17:37.507Z,89.75
2018-09-26T20:20:07.519Z,89.75
2018-09-26T20:22:37.159Z,90.26
2018-09-26T20:25:06.778Z,90.91
2018-09-26T20:27:36.544Z,90.24
2018-09-26T20:30:06.320Z,90.66
2018-09-26T20:32:35.823Z,90.93
2018-09-26T20:35:05.471Z,90.45
2018-09-26T20:37:35.045Z,90.04
2018-09-26T20:40:04.682Z,90.76
2018-09-26T20:42:34.095Z,91.13
2018-09-26T20:45:03.531Z,91.17
2018-09-26T20:47:32.970Z,90.88
2018-09-26T20:50:02.627Z,90.69
2018-09-26T20:52:32.151Z,90.74
2018-09-26T20:55:01.724Z,90.64
2018-09-26T20:57:31.225Z,91.06
2018-09-26T21:00:00.626Z,91.19
2018-09-26T21:02:30.060Z,91.31
2018-09-26T21:04:59.466Z,91.17
2018-09-26T21:07:29.618Z,92.06
2018-09-26T21:09:59.083Z,92.26
2018-09-26T21:12:28.635Z,91.72
2018-09-26T21:14:58.093Z,91.51
2018-09-26T21:17:27.604Z,91.25
2018-09-26T21:19:57.910Z,91.28
2018-09-26T21:22:27.352Z,91.43
2018-09-26T21:24:58.131Z,91.66
2018-09-26T21:27:27.534Z,91.40
2018-09-26T21:29:57.204Z,91.33
2018-09-26T21:32:26.616Z,92.48
2018-09-26T21:34:56.021Z,92.67
2018-09-26T21:37:25.466Z,92.80
2018-09-26T21:39:56.802Z,91.89
2018-09-26T21:42:26.834Z,91.96
2018-09-26T21:44:56.350Z,91.98
2018-09-26T21:47:25.790Z,92.01
2018-09-26T21:49:55.226Z,91.92
2018-09-26T21:52:24.647Z,92.09
2018-09-26T21:54:54.080Z,91.90
2018-09-26T21:57:23.456Z,91.91
2018-09-26T21:59:52.966Z,91.97
2018-09-26T22:02:22.408Z,91.84
2018-09-26T22:04:51.939Z,92.33
2018-09-26T22:07:21.403Z,93.02
2018-09-26T22:09:50.816Z,93.45
2018-09-26T22:12:20.748Z,93.13
2018-09-26T22:14:50.642Z,92.30
2018-09-26T22:17:20.316Z,92.28
2018-09-26T22:19:49.915Z,91.95
2018-09-26T22:22:19.327Z,92.41
2018-09-26T22:24:48.794Z,92.41
2018-09-26T22:27:18.701Z,93.21
2018-09-26T22:29:48.700Z,92.99
2018-09-26T22:32:18.176Z,92.20
2018-09-26T22:34:48.213Z,91.81
2018-09-26T22:37:18.440Z,91.58
2018-09-26T22:39:48.408Z,92.65
2018-09-26T22:42:17.800Z,92.69
2018-09-26T22:44:47.265Z,93.05
2018-09-26T22:47:16.778Z,93.06
2018-09-26T22:49:46.258Z,93.02
2018-09-26T22:52:15.747Z,93.29
2018-09-26T22:54:45.631Z,93.11
2018-09-26T22:57:16.228Z,92.99
2018-09-26T22:59:46.238Z,92.91
2018-09-26T23:02:15.692Z,92.84
2018-09-26T23:04:45.287Z,92.58
2018-09-26T23:07:14.757Z,92.76
2018-09-26T23:09:44.205Z,92.79
2018-09-26T23:12:13.660Z,92.98
2018-09-26T23:14:43.080Z,92.61
2018-09-26T23:17:13.089Z,92.81
2018-09-26T23:19:42.532Z,93.61
2018-09-26T23:22:11.997Z,93.62
2018-09-26T23:24:41.568Z,93.04
2018-09-26T23:27:10.997Z,93.11
2018-09-26T23:29:40.443Z,92.74
2018-09-26T23:32:09.886Z,93.09
2018-09-26T23:34:40.137Z,93.89
2018-09-26T23:37:09.554Z,93.77
2018-09-26T23:39:39.209Z,92.94
2018-09-26T23:42:09.010Z,93.45
2018-09-26T23:44:38.457Z,94.17
2018-09-26T23:47:07.942Z,93.55
2018-09-26T23:49:37.411Z,93.19
2018-09-26T23:52:06.963Z,93.76
2018-09-26T23:54:36.415Z,94.64
2018-09-26T23:57:05.890Z,94.28
2018-09-26T23:59:35.302Z,93.61
